createdAt,value
2019-05-11T00:00:57.129Z,4.00
2019-05-11T00:01:56.962Z,4.00
2019-05-11T00:02:56.947Z,4.00
2019-05-11T00:03:56.934Z,8.00
2019-05-11T00:04:56.927Z,8.00
2019-05-11T00:05:56.913Z,8.00
2019-05-11T00:06:56.955Z,8.00
2019-05-11T00:07:56.891Z,16.00
2019-05-11T00:08:56.882Z,16.00
2019-05-11T00:09:58.510Z,16.00
2019-05-11T00:10:56.857Z,20.00
2019-05-11T00:11:56.852Z,24.00
2019-05-11T00:12:56.887Z,28.00
2019-05-11T00:13:56.824Z,36.00
2019-05-11T00:14:56.815Z,36.00
2019-05-11T00:15:56.803Z,40.00
2019-05-11T00:16:56.791Z,48.00
2019-05-11T00:17:56.787Z,52.00
2019-05-11T00:18:56.923Z,60.00
2019-05-11T00:19:56.764Z,64.00
2019-05-11T00:20:56.763Z,72.00
2019-05-11T00:21:56.737Z,76.00
2019-05-11T00:22:56.732Z,84.00
2019-05-11T00:23:56.718Z,88.00
2019-05-11T00:24:56.758Z,96.00
2019-05-11T00:25:56.694Z,104.00
2019-05-11T00:26:56.683Z,108.00
2019-05-11T00:27:56.674Z,120.00
2019-05-11T00:28:56.662Z,124.00
2019-05-11T00:29:56.650Z,132.00
2019-05-11T00:30:56.691Z,136.00
2019-05-11T00:31:56.630Z,148.00
2019-05-11T00:32:56.622Z,156.00
2019-05-11T00:33:56.605Z,164.00
2019-05-11T00:34:56.599Z,176.00
2019-05-11T00:35:56.591Z,188.00
2019-05-11T00:36:56.727Z,200.00
2019-05-11T00:37:56.564Z,212.00
2019-05-11T00:38:56.553Z,224.00
2019-05-11T00:39:56.545Z,240.00
2019-05-11T00:40:56.536Z,252.00
2019-05-11T00:41:56.521Z,268.00
2019-05-11T00:42:56.559Z,280.00
2019-05-11T00:43:56.495Z,296.00
2019-05-11T00:44:56.492Z,316.00
2019-05-11T00:45:56.475Z,336.00
2019-05-11T00:46:56.463Z,364.00
2019-05-11T00:47:56.453Z,384.00
2019-05-11T00:48:56.493Z,412.00
2019-05-11T00:49:56.430Z,436.00
2019-05-11T00:50:56.421Z,468.00
2019-05-11T00:51:56.412Z,496.00
2019-05-11T00:52:56.398Z,528.00
2019-05-11T00:53:56.385Z,564.00
2019-05-11T00:54:56.780Z,600.00
2019-05-11T00:55:56.366Z,636.00
2019-05-11T00:56:56.359Z,676.00
2019-05-11T00:57:56.346Z,716.00
2019-05-11T00:58:56.333Z,756.00
2019-05-11T00:59:56.324Z,796.00
2019-05-11T01:00:56.363Z,840.00
2019-05-11T01:01:56.302Z,880.00
2019-05-11T01:02:56.291Z,924.00
2019-05-11T01:03:56.275Z,964.00
2019-05-11T01:04:56.277Z,1004.00
2019-05-11T01:05:56.346Z,1044.00
2019-05-11T01:06:56.309Z,1080.00
2019-05-11T01:07:56.236Z,1124.00
2019-05-11T01:08:56.226Z,1160.00
2019-05-11T01:09:56.213Z,1200.00
2019-05-11T01:10:56.205Z,1244.00
2019-05-11T01:11:56.194Z,1292.00
2019-05-11T01:12:56.331Z,1336.00
2019-05-11T01:13:56.176Z,1384.00
2019-05-11T01:14:56.157Z,1428.00
2019-05-11T01:15:56.147Z,1480.00
2019-05-11T01:16:56.136Z,1524.00
2019-05-11T01:17:56.126Z,1572.00
2019-05-11T01:18:56.214Z,1624.00
2019-05-11T01:19:56.104Z,1672.00
2019-05-11T01:20:56.095Z,1728.00
2019-05-11T01:21:56.081Z,1784.00
2019-05-11T01:22:56.070Z,1832.00
2019-05-11T01:23:56.058Z,1888.00
2019-05-11T01:24:56.102Z,1944.00
2019-05-11T01:25:56.038Z,2004.00
2019-05-11T01:26:56.029Z,2056.00
2019-05-11T01:27:56.022Z,2104.00
2019-05-11T01:28:56.005Z,2152.00
2019-05-11T01:29:55.995Z,2196.00
2019-05-11T01:30:56.135Z,2248.00
2019-05-11T01:31:55.976Z,2308.00
2019-05-11T01:32:55.962Z,2372.00
2019-05-11T01:33:55.954Z,2420.00
2019-05-11T01:34:55.941Z,2452.00
2019-05-11T01:35:55.928Z,2472.00
2019-05-11T01:36:55.968Z,2460.00
2019-05-11T01:37:55.912Z,2440.00
2019-05-11T01:38:55.896Z,2420.00
2019-05-11T01:39:55.888Z,2412.00
2019-05-11T01:40:58.591Z,2416.00
2019-05-11T01:41:55.866Z,2428.00
2019-05-11T01:42:55.901Z,2448.00
2019-05-11T01:43:55.839Z,2456.00
2019-05-11T01:44:55.835Z,2444.00
2019-05-11T01:45:55.820Z,2420.00
2019-05-11T01:46:55.811Z,2392.00
2019-05-11T01:47:55.822Z,2364.00
2019-05-11T01:48:55.938Z,2368.00
2019-05-11T01:49:55.778Z,2380.00
2019-05-11T01:50:55.772Z,2416.00
2019-05-11T01:51:55.758Z,2460.00
2019-05-11T01:52:55.744Z,2516.00
2019-05-11T01:53:55.739Z,2568.00
2019-05-11T01:54:55.821Z,2608.00
2019-05-11T01:55:55.711Z,2628.00
2019-05-11T01:56:55.703Z,2652.00
2019-05-11T01:57:55.690Z,2672.00
2019-05-11T01:58:55.681Z,2700.00
2019-05-11T01:59:55.667Z,2744.00
2019-05-11T02:00:55.708Z,2784.00
2019-05-11T02:01:55.646Z,2836.00
2019-05-11T02:02:55.639Z,2896.00
2019-05-11T02:03:55.639Z,2968.00
2019-05-11T02:04:55.616Z,3016.00
2019-05-11T02:05:55.604Z,3056.00
2019-05-11T02:06:55.745Z,3136.00
2019-05-11T02:07:55.592Z,3264.00
2019-05-11T02:08:55.573Z,3532.00
2019-05-11T02:09:55.562Z,5784.00
2019-05-11T02:10:55.550Z,8028.00
2019-05-11T02:11:55.539Z,9380.00
2019-05-11T02:12:55.581Z,11984.00
2019-05-11T02:13:55.520Z,14680.00
2019-05-11T02:14:55.512Z,7760.00
2019-05-11T02:15:55.499Z,6700.00
2019-05-11T02:16:55.487Z,5952.00
2019-05-11T02:17:55.478Z,5624.00
2019-05-11T02:18:55.514Z,5512.00
2019-05-11T02:19:55.457Z,5480.00
2019-05-11T02:20:55.447Z,5156.00
2019-05-11T02:21:55.430Z,5160.00
2019-05-11T02:22:55.423Z,5472.00
2019-05-11T02:23:55.415Z,6104.00
2019-05-11T02:24:55.554Z,6320.00
2019-05-11T02:25:55.390Z,6472.00
2019-05-11T02:26:55.378Z,6312.00
2019-05-11T02:27:55.370Z,5848.00
2019-05-11T02:28:55.364Z,5976.00
2019-05-11T02:29:55.351Z,6140.00
2019-05-11T02:30:55.400Z,6124.00
2019-05-11T02:31:55.333Z,6180.00
2019-05-11T02:32:55.330Z,6284.00
2019-05-11T02:33:55.315Z,6400.00
2019-05-11T02:34:55.296Z,6676.00
2019-05-11T02:35:55.287Z,7372.00
2019-05-11T02:36:55.327Z,8228.00
2019-05-11T02:37:55.379Z,9244.00
2019-05-11T02:38:55.256Z,9460.00
2019-05-11T02:39:55.246Z,9448.00
2019-05-11T02:40:55.247Z,8484.00
2019-05-11T02:41:55.229Z,7676.00
2019-05-11T02:42:55.364Z,7676.00
2019-05-11T02:43:55.204Z,8368.00
2019-05-11T02:44:55.196Z,10016.00
2019-05-11T02:45:55.185Z,13188.00
2019-05-11T02:46:55.175Z,18000.00
2019-05-11T02:47:55.170Z,20480.00
2019-05-11T02:48:55.201Z,21376.00
2019-05-11T02:49:55.143Z,26080.00
2019-05-11T02:50:55.142Z,26112.00
2019-05-11T02:51:55.121Z,30432.00
2019-05-11T02:52:55.109Z,32320.00
2019-05-11T02:53:55.103Z,35520.00
2019-05-11T02:54:55.136Z,33088.00
2019-05-11T02:55:55.075Z,32640.00
2019-05-11T02:56:55.063Z,28480.00
2019-05-11T02:57:55.055Z,28736.00
2019-05-11T02:58:55.044Z,26592.00
2019-05-11T02:59:55.033Z,26784.00
2019-05-11T03:00:55.273Z,27936.00
2019-05-11T03:01:55.013Z,18764.00
2019-05-11T03:02:55.005Z,16560.00
2019-05-11T03:03:54.995Z,34656.00
2019-05-11T03:04:54.986Z,38912.00
2019-05-11T03:05:55.025Z,37984.00
2019-05-11T03:06:54.964Z,38592.00
2019-05-11T03:07:54.957Z,37056.00
2019-05-11T03:08:54.940Z,36640.00
2019-05-11T03:09:54.931Z,36928.00
2019-05-11T03:10:54.915Z,37024.00
2019-05-11T03:11:56.454Z,36768.00
2019-05-11T03:12:54.904Z,35360.00
2019-05-11T03:13:54.884Z,35744.00
2019-05-11T03:14:54.880Z,38336.00
2019-05-11T03:15:54.866Z,39968.00
2019-05-11T03:16:54.856Z,41344.00
2019-05-11T03:17:54.999Z,42528.00
2019-05-11T03:18:54.842Z,43424.00
2019-05-11T03:19:54.823Z,41792.00
2019-05-11T03:20:54.816Z,39136.00
2019-05-11T03:21:54.804Z,36576.00
2019-05-11T03:22:54.848Z,25152.00
2019-05-11T03:23:54.838Z,12656.00
2019-05-11T03:24:54.779Z,11820.00
2019-05-11T03:25:54.779Z,11848.00
2019-05-11T03:26:54.756Z,12056.00
2019-05-11T03:27:54.745Z,12552.00
2019-05-11T03:28:54.734Z,13060.00
2019-05-11T03:29:54.770Z,13488.00
2019-05-11T03:30:54.730Z,21152.00
2019-05-11T03:31:54.802Z,16100.00
2019-05-11T03:32:54.714Z,21472.00
2019-05-11T03:33:54.682Z,34656.00
2019-05-11T03:34:54.682Z,40448.00
2019-05-11T03:35:54.821Z,39040.00
2019-05-11T03:36:54.654Z,38240.00
2019-05-11T03:37:54.747Z,36096.00
2019-05-11T03:38:54.631Z,36064.00
2019-05-11T03:39:54.622Z,23488.00
2019-05-11T03:40:54.612Z,25696.00
2019-05-11T03:42:12.885Z,14164.00
2019-05-11T03:42:55.694Z,12788.00
2019-05-11T03:43:54.579Z,12320.00
2019-05-11T03:44:54.576Z,12000.00
2019-05-11T03:45:54.572Z,11564.00
2019-05-11T03:46:54.551Z,11104.00
2019-05-11T03:47:54.594Z,10680.00
2019-05-11T03:48:54.542Z,10236.00
2019-05-11T03:49:54.529Z,9892.00
2019-05-11T03:50:54.513Z,9632.00
2019-05-11T03:51:54.511Z,9492.00
2019-05-11T03:52:54.490Z,9228.00
2019-05-11T03:53:54.635Z,8876.00
2019-05-11T03:54:54.473Z,8496.00
2019-05-11T03:55:54.466Z,8044.00
2019-05-11T03:56:54.452Z,7548.00
2019-05-11T03:57:54.442Z,7028.00
2019-05-11T03:58:54.435Z,6512.00
2019-05-11T03:59:54.520Z,6032.00
2019-05-11T04:00:54.411Z,5520.00
2019-05-11T04:01:54.397Z,5072.00
2019-05-11T04:02:54.391Z,4704.00
2019-05-11T04:03:54.379Z,4328.00
2019-05-11T04:04:54.417Z,3928.00
2019-05-11T04:05:54.361Z,3564.00
2019-05-11T04:06:54.348Z,3252.00
2019-05-11T04:07:54.336Z,2976.00
2019-05-11T04:08:54.435Z,2728.00
2019-05-11T04:09:54.570Z,2528.00
2019-05-11T04:10:54.308Z,2372.00
2019-05-11T04:11:54.294Z,2256.00
2019-05-11T04:12:54.305Z,2136.00
2019-05-11T04:13:54.272Z,2028.00
2019-05-11T04:14:54.266Z,1936.00
2019-05-11T04:15:54.302Z,1804.00
2019-05-11T04:16:54.241Z,1664.00
2019-05-11T04:17:54.237Z,1576.00
2019-05-11T04:18:54.222Z,1484.00
2019-05-11T04:19:54.209Z,1424.00
2019-05-11T04:20:54.203Z,1356.00
2019-05-11T04:21:54.239Z,1292.00
2019-05-11T04:22:54.179Z,1232.00
2019-05-11T04:23:54.171Z,1180.00
2019-05-11T04:24:54.162Z,1124.00
2019-05-11T04:25:54.149Z,1080.00
2019-05-11T04:26:54.142Z,1036.00
2019-05-11T04:27:54.278Z,1008.00
2019-05-11T04:28:54.124Z,984.00
2019-05-11T04:29:54.110Z,952.00
2019-05-11T04:30:54.096Z,924.00
2019-05-11T04:31:54.083Z,904.00
2019-05-11T04:32:54.079Z,884.00
2019-05-11T04:33:54.114Z,864.00
2019-05-11T04:34:54.059Z,848.00
2019-05-11T04:35:54.040Z,832.00
2019-05-11T04:36:54.031Z,820.00
2019-05-11T04:37:54.021Z,812.00
2019-05-11T04:38:54.010Z,808.00
2019-05-11T04:39:54.073Z,800.00
2019-05-11T04:40:53.993Z,792.00
2019-05-11T04:41:53.978Z,788.00
2019-05-11T04:42:56.066Z,788.00
2019-05-11T04:43:53.954Z,792.00
2019-05-11T04:44:53.949Z,804.00
2019-05-11T04:45:54.183Z,820.00
2019-05-11T04:46:53.925Z,836.00
2019-05-11T04:47:53.916Z,856.00
2019-05-11T04:48:53.905Z,872.00
2019-05-11T04:49:53.909Z,888.00
2019-05-11T04:50:53.883Z,904.00
2019-05-11T04:51:53.920Z,920.00
2019-05-11T04:52:53.859Z,936.00
2019-05-11T04:53:53.850Z,960.00
2019-05-11T04:54:53.846Z,992.00
2019-05-11T04:55:53.834Z,1028.00
2019-05-11T04:56:53.816Z,1064.00
2019-05-11T04:57:53.865Z,1092.00
2019-05-11T04:58:53.796Z,1116.00
2019-05-11T04:59:53.787Z,1144.00
2019-05-11T05:00:53.773Z,1168.00
2019-05-11T05:01:53.767Z,1188.00
2019-05-11T05:02:53.752Z,1208.00
2019-05-11T05:03:57.747Z,1232.00
2019-05-11T05:05:18.544Z,1276.00
2019-05-11T05:06:24.024Z,1304.00
2019-05-11T05:07:19.622Z,1340.00
2019-05-11T05:08:21.226Z,1376.00
2019-05-11T05:09:44.753Z,1436.00
2019-05-11T05:10:43.350Z,1484.00
2019-05-11T05:11:43.340Z,1528.00
2019-05-11T05:12:50.756Z,1572.00
2019-05-11T05:14:10.182Z,1640.00
2019-05-11T05:15:08.221Z,1704.00
2019-05-11T05:16:08.109Z,1748.00
2019-05-11T05:17:08.096Z,1824.00
2019-05-11T05:18:08.089Z,1900.00
2019-05-11T05:19:08.077Z,1996.00
2019-05-11T05:20:08.072Z,2124.00
2019-05-11T05:21:08.207Z,2272.00
2019-05-11T05:22:08.053Z,2412.00
2019-05-11T05:23:08.034Z,2556.00
2019-05-11T05:24:08.022Z,2680.00
2019-05-11T05:25:08.011Z,2816.00
2019-05-11T05:26:08.003Z,2960.00
2019-05-11T05:27:08.082Z,3100.00
2019-05-11T05:28:07.982Z,3216.00
2019-05-11T05:29:07.973Z,3356.00
2019-05-11T05:30:08.289Z,3512.00
2019-05-11T05:31:07.949Z,3696.00
2019-05-11T05:32:07.938Z,3864.00
2019-05-11T05:33:07.978Z,4036.00
2019-05-11T05:34:07.920Z,4208.00
2019-05-11T05:35:07.905Z,4384.00
2019-05-11T05:36:07.898Z,4568.00
2019-05-11T05:37:07.897Z,4772.00
2019-05-11T05:38:07.876Z,4964.00
2019-05-11T05:39:09.271Z,5160.00
2019-05-11T05:40:07.852Z,5368.00
2019-05-11T05:41:07.843Z,5576.00
2019-05-11T05:42:07.831Z,5780.00
2019-05-11T05:43:07.820Z,6000.00
2019-05-11T05:44:07.808Z,6208.00
2019-05-11T05:45:07.856Z,6404.00
2019-05-11T05:46:07.792Z,6596.00
2019-05-11T05:47:07.784Z,6804.00
2019-05-11T05:48:07.776Z,7032.00
2019-05-11T05:49:07.760Z,7224.00
2019-05-11T05:50:07.754Z,7420.00
2019-05-11T05:51:07.789Z,7632.00
2019-05-11T05:52:07.795Z,7888.00
2019-05-11T05:53:07.715Z,8144.00
2019-05-11T05:54:07.704Z,8408.00
2019-05-11T05:55:07.699Z,8656.00
2019-05-11T05:56:07.682Z,8888.00
2019-05-11T05:57:07.822Z,9092.00
2019-05-11T05:58:07.663Z,9276.00
2019-05-11T05:59:07.655Z,9448.00
2019-05-11T06:00:07.643Z,9544.00
2019-05-11T06:01:10.070Z,9644.00
2019-05-11T06:02:07.623Z,9760.00
2019-05-11T06:03:07.661Z,9872.00
2019-05-11T06:04:07.600Z,9960.00
2019-05-11T06:05:07.593Z,10092.00
2019-05-11T06:06:07.580Z,10252.00
2019-05-11T06:07:07.571Z,10372.00
2019-05-11T06:08:07.565Z,10464.00
2019-05-11T06:09:07.601Z,10532.00
2019-05-11T06:10:07.542Z,10592.00
2019-05-11T06:11:07.526Z,10608.00
2019-05-11T06:12:07.518Z,10600.00
2019-05-11T06:13:07.507Z,10540.00
2019-05-11T06:14:07.500Z,10472.00
2019-05-11T06:15:07.639Z,10396.00
2019-05-11T06:16:07.474Z,10284.00
2019-05-11T06:17:07.470Z,10180.00
2019-05-11T06:18:07.454Z,10084.00
2019-05-11T06:19:07.449Z,10064.00
2019-05-11T06:20:08.130Z,10096.00
2019-05-11T06:21:07.478Z,10128.00
2019-05-11T06:22:07.413Z,10168.00
2019-05-11T06:23:07.405Z,10200.00
2019-05-11T06:24:08.474Z,10192.00
2019-05-11T06:25:07.389Z,10152.00
2019-05-11T06:26:07.395Z,10076.00
2019-05-11T06:27:07.410Z,9988.00
2019-05-11T06:28:07.347Z,9920.00
2019-05-11T06:29:07.343Z,9864.00
2019-05-11T06:30:07.335Z,9828.00
2019-05-11T06:31:07.316Z,9808.00
2019-05-11T06:32:07.309Z,9796.00
2019-05-11T06:33:07.699Z,9796.00
2019-05-11T06:34:07.288Z,9788.00
2019-05-11T06:35:07.273Z,9780.00
2019-05-11T06:36:07.263Z,9800.00
2019-05-11T06:37:07.250Z,9780.00
2019-05-11T06:38:07.241Z,9740.00
2019-05-11T06:39:07.330Z,9716.00
2019-05-11T06:40:07.231Z,9664.00
2019-05-11T06:41:07.207Z,9564.00
2019-05-11T06:42:07.196Z,9416.00
2019-05-11T06:43:07.185Z,9240.00
2019-05-11T06:44:07.178Z,9088.00
2019-05-11T06:45:07.216Z,8984.00
2019-05-11T06:46:07.153Z,8928.00
2019-05-11T06:47:07.146Z,8880.00
2019-05-11T06:48:07.132Z,8876.00
2019-05-11T06:49:07.127Z,8876.00
2019-05-11T06:50:07.115Z,8896.00
2019-05-11T06:51:07.253Z,8920.00
2019-05-11T06:52:07.104Z,8968.00
2019-05-11T06:53:07.090Z,9012.00
2019-05-11T06:54:07.075Z,9052.00
2019-05-11T06:55:07.062Z,9236.00
2019-05-11T06:56:07.049Z,9476.00
2019-05-11T06:57:07.146Z,9552.00
2019-05-11T06:58:07.032Z,9672.00
2019-05-11T06:59:07.020Z,9736.00
2019-05-11T07:00:07.015Z,9852.00
2019-05-11T07:01:06.999Z,9936.00
2019-05-11T07:02:06.995Z,9936.00
2019-05-11T07:03:07.038Z,9976.00
2019-05-11T07:04:06.969Z,10048.00
2019-05-11T07:05:06.957Z,10052.00
2019-05-11T07:06:06.947Z,10044.00
2019-05-11T07:07:06.943Z,9980.00
2019-05-11T07:08:06.975Z,9892.00
2019-05-11T07:09:06.922Z,9788.00
2019-05-11T07:10:06.982Z,9688.00
2019-05-11T07:11:06.896Z,9600.00
2019-05-11T07:12:06.952Z,9492.00
2019-05-11T07:13:06.877Z,9364.00
2019-05-11T07:14:20.121Z,9212.00
2019-05-11T07:15:07.951Z,9076.00
2019-05-11T07:16:06.847Z,8952.00
2019-05-11T07:17:06.838Z,8836.00
2019-05-11T07:18:06.827Z,8712.00
2019-05-11T07:19:06.963Z,8568.00
2019-05-11T07:20:06.807Z,8428.00
2019-05-11T07:21:06.796Z,8328.00
2019-05-11T07:22:06.784Z,8240.00
2019-05-11T07:23:06.775Z,8188.00
2019-05-11T07:24:06.766Z,8188.00
2019-05-11T07:25:06.809Z,8192.00
2019-05-11T07:26:06.799Z,8172.00
2019-05-11T07:27:06.733Z,8132.00
2019-05-11T07:28:06.724Z,8108.00
2019-05-11T07:29:06.713Z,8016.00
2019-05-11T07:30:06.702Z,7920.00
2019-05-11T07:31:06.742Z,7840.00
2019-05-11T07:32:20.013Z,7820.00
2019-05-11T07:33:31.483Z,7812.00
2019-05-11T07:34:31.478Z,7812.00
2019-05-11T07:35:31.462Z,7776.00
2019-05-11T07:36:31.701Z,7696.00
2019-05-11T07:37:31.446Z,7596.00
2019-05-11T07:38:31.434Z,7596.00
2019-05-11T07:39:31.429Z,7644.00
2019-05-11T07:40:31.409Z,7552.00
2019-05-11T07:41:31.400Z,7520.00
2019-05-11T07:42:31.441Z,7636.00
2019-05-11T07:43:31.387Z,7312.00
2019-05-11T07:44:37.904Z,7096.00
2019-05-11T07:45:58.277Z,6636.00
2019-05-11T07:46:58.535Z,6252.00
2019-05-11T07:47:58.769Z,5916.00
2019-05-11T07:48:58.364Z,5556.00
2019-05-11T07:49:57.935Z,5216.00
2019-05-11T07:50:58.287Z,4972.00
2019-05-11T07:51:58.568Z,4812.00
2019-05-11T07:52:56.100Z,4708.00
2019-05-11T07:53:57.794Z,4644.00
2019-05-11T07:54:58.011Z,4608.00
2019-05-11T07:55:57.764Z,4596.00
2019-05-11T07:56:58.220Z,4600.00
2019-05-11T07:57:58.411Z,4624.00
2019-05-11T07:58:58.124Z,4656.00
2019-05-11T07:59:57.878Z,4700.00
2019-05-11T08:00:58.119Z,4764.00
2019-05-11T08:01:58.141Z,4840.00
2019-05-11T08:02:58.312Z,4920.00
2019-05-11T08:03:58.402Z,5012.00
2019-05-11T08:04:55.969Z,5112.00
2019-05-11T08:05:58.084Z,5228.00
2019-05-11T08:06:58.275Z,5364.00
2019-05-11T08:07:55.940Z,5540.00
2019-05-11T08:08:55.928Z,5712.00
2019-05-11T08:09:55.926Z,5888.00
2019-05-11T08:10:55.911Z,6124.00
2019-05-11T08:11:58.249Z,6204.00
2019-05-11T08:12:58.554Z,6428.00
2019-05-11T08:13:58.248Z,6700.00
2019-05-11T08:15:04.915Z,6908.00
2019-05-11T08:16:20.665Z,7136.00
2019-05-11T08:17:20.736Z,7252.00
2019-05-11T08:18:20.643Z,7348.00
2019-05-11T08:19:20.634Z,7464.00
2019-05-11T08:20:20.623Z,7528.00
2019-05-11T08:21:20.614Z,7612.00
2019-05-11T08:22:23.022Z,7684.00
2019-05-11T08:23:20.643Z,7736.00
2019-05-11T08:24:20.581Z,7744.00
2019-05-11T08:25:20.570Z,7704.00
2019-05-11T08:26:20.572Z,7616.00
2019-05-11T08:27:20.556Z,7472.00
2019-05-11T08:28:20.538Z,7200.00
2019-05-11T08:29:20.678Z,6792.00
2019-05-11T08:30:20.521Z,6600.00
2019-05-11T08:31:20.508Z,6536.00
2019-05-11T08:32:20.499Z,6516.00
2019-05-11T08:33:20.486Z,6512.00
2019-05-11T08:34:20.478Z,6424.00
2019-05-11T08:35:20.516Z,6304.00
2019-05-11T08:36:20.452Z,6160.00
2019-05-11T08:37:20.446Z,6012.00
2019-05-11T08:38:20.433Z,5852.00
2019-05-11T08:39:20.426Z,5708.00
2019-05-11T08:40:20.415Z,5568.00
2019-05-11T08:41:20.455Z,5268.00
2019-05-11T08:42:20.391Z,5080.00
2019-05-11T08:43:20.385Z,4948.00
2019-05-11T08:44:20.373Z,4932.00
2019-05-11T08:45:24.483Z,4800.00
2019-05-11T08:46:20.354Z,4688.00
2019-05-11T08:47:20.491Z,4620.00
2019-05-11T08:48:20.329Z,4528.00
2019-05-11T08:49:20.321Z,4480.00
2019-05-11T08:50:20.312Z,4512.00
2019-05-11T08:51:20.298Z,4472.00
2019-05-11T08:52:20.288Z,4404.00
2019-05-11T08:53:20.332Z,4344.00
2019-05-11T08:54:20.267Z,4344.00
2019-05-11T08:55:20.261Z,4356.00
2019-05-11T08:56:20.248Z,4360.00
2019-05-11T08:57:20.240Z,4400.00
2019-05-11T08:58:20.226Z,4448.00
2019-05-11T08:59:20.266Z,4484.00
2019-05-11T09:00:20.202Z,4508.00
2019-05-11T09:01:20.199Z,4552.00
2019-05-11T09:02:20.186Z,4600.00
2019-05-11T09:03:20.175Z,4652.00
2019-05-11T09:04:20.214Z,4692.00
2019-05-11T09:05:20.154Z,4708.00
2019-05-11T09:06:20.142Z,4680.00
2019-05-11T09:07:20.134Z,4700.00
2019-05-11T09:08:20.120Z,4720.00
2019-05-11T09:09:20.111Z,4732.00
2019-05-11T09:10:20.205Z,4776.00
2019-05-11T09:11:20.095Z,4780.00
2019-05-11T09:12:20.080Z,4756.00
2019-05-11T09:13:20.071Z,4764.00
2019-05-11T09:14:20.063Z,4756.00
2019-05-11T09:15:32.342Z,4736.00
2019-05-11T09:16:44.898Z,4708.00
2019-05-11T09:17:44.892Z,4688.00
2019-05-11T09:18:44.878Z,4680.00
2019-05-11T09:19:44.867Z,4664.00
2019-05-11T09:20:44.858Z,4628.00
2019-05-11T09:21:45.095Z,4600.00
2019-05-11T09:22:44.835Z,4580.00
2019-05-11T09:23:44.826Z,4560.00
2019-05-11T09:24:44.816Z,4528.00
2019-05-11T09:25:44.803Z,4504.00
2019-05-11T09:26:44.793Z,4536.00
2019-05-11T09:27:44.832Z,4520.00
2019-05-11T09:28:44.774Z,4540.00
2019-05-11T09:29:44.764Z,4472.00
2019-05-11T09:30:44.750Z,4504.00
2019-05-11T09:31:44.741Z,4504.00
2019-05-11T09:32:44.733Z,4480.00
2019-05-11T09:33:44.768Z,4460.00
2019-05-11T09:34:44.709Z,4424.00
2019-05-11T09:35:50.040Z,4388.00
2019-05-11T09:37:09.500Z,4328.00
2019-05-11T09:38:09.489Z,4296.00
2019-05-11T09:39:09.627Z,4248.00
2019-05-11T09:40:09.466Z,4224.00
2019-05-11T09:41:12.036Z,4188.00
2019-05-11T09:42:09.449Z,4164.00
2019-05-11T09:43:09.439Z,4160.00
2019-05-11T09:44:09.427Z,4136.00
2019-05-11T09:45:09.470Z,4096.00
2019-05-11T09:46:09.406Z,4056.00
2019-05-11T09:47:09.403Z,4012.00
2019-05-11T09:48:09.384Z,3984.00
2019-05-11T09:49:09.375Z,3956.00
2019-05-11T09:50:09.417Z,3940.00
2019-05-11T09:51:09.357Z,3920.00
2019-05-11T09:52:09.346Z,3892.00
2019-05-11T09:53:09.334Z,3880.00
2019-05-11T09:54:09.322Z,3884.00
2019-05-11T09:55:09.313Z,3888.00
2019-05-11T09:56:09.351Z,3884.00
2019-05-11T09:57:09.291Z,3896.00
2019-05-11T09:58:09.282Z,3904.00
2019-05-11T09:59:09.270Z,3924.00
2019-05-11T10:00:09.263Z,3944.00
2019-05-11T10:01:09.248Z,3952.00
2019-05-11T10:02:09.388Z,3956.00
2019-05-11T10:03:09.231Z,3956.00
2019-05-11T10:04:09.232Z,3964.00
2019-05-11T10:05:09.211Z,3948.00
2019-05-11T10:06:09.196Z,3936.00
2019-05-11T10:07:09.187Z,3920.00
2019-05-11T10:08:09.289Z,3936.00
2019-05-11T10:09:09.167Z,3976.00
2019-05-11T10:10:09.492Z,3988.00
2019-05-11T10:11:09.149Z,4020.00
2019-05-11T10:12:09.133Z,4056.00
2019-05-11T10:13:09.124Z,4100.00
2019-05-11T10:14:09.164Z,4156.00
2019-05-11T10:15:09.104Z,4220.00
2019-05-11T10:16:10.607Z,4260.00
2019-05-11T10:17:09.082Z,4316.00
2019-05-11T10:18:09.070Z,4372.00
2019-05-11T10:19:09.063Z,4448.00
2019-05-11T10:20:09.569Z,4496.00
2019-05-11T10:21:09.041Z,4532.00
2019-05-11T10:22:09.036Z,4560.00
2019-05-11T10:23:09.026Z,4572.00
2019-05-11T10:24:09.009Z,4580.00
2019-05-11T10:25:09.308Z,4568.00
2019-05-11T10:26:09.038Z,4540.00
2019-05-11T10:27:08.981Z,4516.00
2019-05-11T10:28:08.971Z,4500.00
2019-05-11T10:29:08.961Z,4488.00
2019-05-11T10:30:08.953Z,4468.00
2019-05-11T10:31:08.939Z,4440.00
2019-05-11T10:32:08.974Z,4416.00
2019-05-11T10:33:08.918Z,4376.00
2019-05-11T10:34:08.909Z,4324.00
2019-05-11T10:35:08.897Z,4288.00
2019-05-11T10:36:08.883Z,4232.00
2019-05-11T10:37:08.874Z,4184.00
2019-05-11T10:38:09.241Z,4140.00
2019-05-11T10:39:08.858Z,4080.00
2019-05-11T10:40:09.641Z,4032.00
2019-05-11T10:41:08.920Z,3988.00
2019-05-11T10:42:08.823Z,3940.00
2019-05-11T10:43:08.814Z,3892.00
2019-05-11T10:44:08.860Z,3836.00
2019-05-11T10:45:09.274Z,3780.00
2019-05-11T10:46:16.986Z,3736.00
2019-05-11T10:47:09.877Z,3696.00
2019-05-11T10:48:08.990Z,3656.00
2019-05-11T10:49:08.801Z,3620.00
2019-05-11T10:50:08.880Z,3596.00
2019-05-11T10:51:08.730Z,3556.00
2019-05-11T10:52:09.797Z,3524.00
2019-05-11T10:53:08.711Z,3500.00
2019-05-11T10:54:08.955Z,3480.00
2019-05-11T10:55:09.006Z,3468.00
2019-05-11T10:56:08.908Z,3460.00
2019-05-11T10:57:08.670Z,3448.00
2019-05-11T10:58:08.799Z,3440.00
2019-05-11T10:59:08.651Z,3424.00
2019-05-11T11:00:08.638Z,3404.00
2019-05-11T11:01:08.958Z,3388.00
2019-05-11T11:02:08.615Z,3372.00
2019-05-11T11:03:08.655Z,3360.00
2019-05-11T11:04:08.596Z,3356.00
2019-05-11T11:05:08.586Z,3356.00
2019-05-11T11:06:08.726Z,3348.00
2019-05-11T11:07:08.561Z,3348.00
2019-05-11T11:08:08.554Z,3360.00
2019-05-11T11:09:08.546Z,3364.00
2019-05-11T11:10:09.084Z,3372.00
2019-05-11T11:11:08.526Z,3368.00
2019-05-11T11:12:08.626Z,3372.00
2019-05-11T11:13:08.503Z,3368.00
2019-05-11T11:14:08.831Z,3364.00
2019-05-11T11:15:08.481Z,3348.00
2019-05-11T11:16:08.591Z,3332.00
2019-05-11T11:17:08.881Z,3320.00
2019-05-11T11:18:08.762Z,3308.00
2019-05-11T11:19:08.441Z,3288.00
2019-05-11T11:20:08.812Z,3252.00
2019-05-11T11:21:08.816Z,3252.00
2019-05-11T11:22:35.363Z,3236.00
2019-05-11T11:23:33.262Z,3236.00
2019-05-11T11:24:33.259Z,3244.00
2019-05-11T11:25:33.240Z,3256.00
2019-05-11T11:26:33.233Z,3276.00
2019-05-11T11:27:33.220Z,3284.00
2019-05-11T11:28:33.259Z,3296.00
2019-05-11T11:29:33.200Z,3312.00
2019-05-11T11:30:33.192Z,3316.00
2019-05-11T11:31:33.180Z,3320.00
2019-05-11T11:32:33.172Z,3332.00
2019-05-11T11:33:33.308Z,3340.00
2019-05-11T11:34:33.148Z,3344.00
2019-05-11T11:35:33.133Z,3352.00
2019-05-11T11:36:33.131Z,3356.00
2019-05-11T11:37:33.120Z,3364.00
2019-05-11T11:38:33.109Z,3368.00
2019-05-11T11:39:33.146Z,3376.00
2019-05-11T11:40:33.083Z,3376.00
2019-05-11T11:41:33.115Z,3380.00
2019-05-11T11:42:33.109Z,3384.00
2019-05-11T11:43:33.101Z,3384.00
2019-05-11T11:44:33.042Z,3384.00
2019-05-11T11:45:33.084Z,3380.00
2019-05-11T11:46:46.697Z,3368.00
2019-05-11T11:47:58.136Z,3396.00
2019-05-11T11:48:58.177Z,3404.00
2019-05-11T11:49:58.353Z,3416.00
2019-05-11T11:50:58.568Z,3420.00
2019-05-11T11:51:58.090Z,3432.00
2019-05-11T11:52:57.994Z,3444.00
2019-05-11T11:53:58.408Z,3460.00
2019-05-11T11:54:58.715Z,3472.00
2019-05-11T11:55:58.765Z,3488.00
2019-05-11T11:56:59.012Z,3504.00
2019-05-11T11:57:58.915Z,3524.00
2019-05-11T11:58:58.040Z,3544.00
2019-05-11T11:59:58.728Z,3572.00
2019-05-11T12:00:58.663Z,3596.00
2019-05-11T12:01:58.234Z,3624.00
2019-05-11T12:02:58.128Z,3652.00
2019-05-11T12:03:58.164Z,3684.00
2019-05-11T12:04:58.266Z,3712.00
2019-05-11T12:05:58.168Z,3748.00
2019-05-11T12:06:58.152Z,3780.00
2019-05-11T12:07:58.112Z,3824.00
2019-05-11T12:08:58.502Z,3860.00
2019-05-11T12:09:58.768Z,3896.00
2019-05-11T12:10:58.865Z,3936.00